Flight Track Log - Related Links

Times and Time Zones

All times are in EDT time to prevent confusion due to time zone crossing. See the N428CD flight status page for this flight to view local times or setup timezone preferences in your user account.

Time Position Orientation Groundspeed Altitude Reporting Facility
EDT Latitude Longitude Course Direction KTS MPH feet Rate Location/Type
Sun 10:11:20 AM 42.2581 -85.6175 347° North 145 167 3,300  Level Chicago Center
Sun 10:12:22 AM 42.3014 -85.6311 347° North 147 169 4,000 677 Climbing Chicago Center
Sun 10:13:24 AM 42.3400 -85.6483 342° North 147 169 4,700 726 Climbing Chicago Center
Sun 10:14:26 AM 42.3883 -85.6575 352° North 147 169 5,500 726 Climbing Chicago Center
Sun 10:15:28 AM 42.4306 -85.6586 359° North 150 173 6,200 677 Climbing Chicago Center
Sun 10:16:30 AM 42.4725 -85.6611 357° North 151 174 6,900 677 Climbing Chicago Center
Sun 10:17:32 AM 42.5153 -85.6633 358° North 153 176 7,600 629 Climbing Chicago Center
Sun 10:18:34 AM 42.5603 -85.6650 358° North 159 183 8,200 581 Climbing Chicago Center
Sun 10:19:36 AM 42.6019 -85.6886 337° Northwest 162 186 8,800 683 Climbing Chicago Center
Sun 10:20:37 AM 42.6539 -85.7156 339° North 166 191 9,600 683 Climbing Chicago Center
Sun 10:21:39 AM 42.6978 -85.7378 340° North 168 193 10,200 581 Climbing Chicago Center
Sun 10:22:41 AM 42.7419 -85.7608 339° North 169 194 10,800 629 Climbing Chicago Center
Sun 10:23:43 AM 42.7864 -85.7839 339° North 171 197 11,500 629 Climbing Chicago Center
Sun 10:24:45 AM 42.8317 -85.8075 339° North 173 199 12,100 581 Climbing Chicago Center
Sun 10:25:47 AM 42.8761 -85.8303 339° North 172 198 12,700 677 Climbing Chicago Center
Sun 10:26:49 AM 42.9300 -85.8583 339° North 172 198 13,500 677 Climbing Chicago Center
Sun 10:27:51 AM 42.9750 -85.8817 339° North 173 199 14,100 581 Climbing Chicago Center
Sun 10:28:53 AM 43.0192 -85.9031 341° North 171 197 14,700 581 Climbing Chicago Center
Sun 10:29:55 AM 43.0650 -85.9267 339° North 181 208 15,300 629 Climbing Chicago Center
Sun 10:30:57 AM 43.1192 -85.9567 338° Northwest 176 203 16,000 339 Climbing Chicago Center
Sun 10:31:59 AM 43.1681 -85.9828 339° North 183 211 16,000  Level Chicago Center
Sun 10:33:01 AM 43.2236 -86.0106 340° North 199 229 16,000  Level Chicago Center
Sun 10:34:03 AM 43.2767 -86.0386 339° North 204 235 16,000  Level Chicago Center
Sun 10:35:05 AM 43.3303 -86.0672 339° North 206 237 16,000  Level Chicago Center
Sun 10:36:06 AM 43.3831 -86.0950 339° North 205 236 16,000  Level Chicago Center
Sun 10:37:08 AM 43.4461 -86.1283 339° North 203 234 16,000  Level Chicago Center
Sun 10:38:10 AM 43.4992 -86.1564 339° North 204 235 16,000  Level Chicago Center
Sun 10:39:12 AM 43.5517 -86.1844 339° North 203 234 16,000  Level Chicago Center
Sun 10:40:14 AM 43.6031 -86.2117 339° North 200 230 16,000  Level Chicago Center
Sun 10:41:17 AM 43.6553 -86.2397 339° North 200 230 16,000  Level Chicago Center
Sun 10:42:18 AM 43.7081 -86.2675 339° North 203 234 16,000  Level Chicago Center
Sun 10:43:20 AM 43.7703 -86.3022 338° Northwest 202 232 16,000  Level Chicago Center
Sun 10:44:22 AM 43.8231 -86.3300 339° North 203 234 16,000  Level Chicago Center
Sun 10:45:24 AM 43.8758 -86.3586 339° North 204 235 16,000  Level Chicago Center
Sun 10:46:09 AM 43.9178 -86.3817 338° Northwest 204 235 16,000  Level Minneapolis Center
Sun 10:47:11 AM 43.9686 -86.4133 336° Northwest 202 232 16,000  Level Minneapolis Center
Sun 10:48:13 AM 43.9850 -86.4867 287° West 195 224 16,000  Level Minneapolis Center
Sun 10:49:15 AM 44.0036 -86.5553 291° West 189 217 16,000  Level Minneapolis Center
Sun 10:50:17 AM 44.0219 -86.6233 291° West 192 221 16,000  Level Minneapolis Center
Sun 10:51:19 AM 44.0400 -86.6931 290° West 193 222 16,000  Level Minneapolis Center
Sun 10:52:21 AM 44.0619 -86.7750 290° West 190 219 16,000  Level Minneapolis Center
Sun 10:53:23 AM 44.0803 -86.8447 290° West 192 221 16,000  Level Minneapolis Center
Sun 10:54:25 AM 44.0978 -86.9144 289° West 192 221 16,000  Level Minneapolis Center
Sun 10:55:27 AM 44.1169 -86.9833 291° West 192 221 16,000  Level Minneapolis Center
Sun 10:56:29 AM 44.1342 -87.0525 289° West 192 221 16,000  Level Minneapolis Center
Sun 10:57:31 AM 44.1561 -87.1356 290° West 190 219 16,000  Level Minneapolis Center
Sun 10:58:33 AM 44.1747 -87.2075 290° West 190 219 16,000  Level Minneapolis Center
Sun 10:59:35 AM 44.1928 -87.2742 291° West 192 221 16,000  Level Minneapolis Center
Sun 11:00:40 AM 44.2125 -87.3539 289° West 188 216 16,000  Level Minneapolis Center
Sun 11:01:42 AM 44.2308 -87.4214 291° West 186 214 16,000  Level Minneapolis Center
Sun 11:02:44 AM 44.2481 -87.4897 289° West 188 216 16,000  Level Minneapolis Center
Sun 11:03:46 AM 44.2661 -87.5578 290° West 188 216 16,000  Level Minneapolis Center
Sun 11:04:48 AM 44.2828 -87.6247 289° West 185 213 16,000  Level Minneapolis Center
Sun 11:05:50 AM 44.3000 -87.6925 290° West 185 213 16,000  Level Minneapolis Center
Sun 11:06:52 AM 44.3197 -87.7708 289° West 185 213 16,000  Level Minneapolis Center
Sun 11:07:54 AM 44.3369 -87.8389 290° West 187 215 16,000  Level Minneapolis Center
Sun 11:08:56 AM 44.3533 -87.9083 288° West 189 217 16,000  Level Minneapolis Center
Sun 11:09:58 AM 44.3708 -87.9761 290° West 187 215 16,000  Level Minneapolis Center
Sun 11:11:00 AM 44.3886 -88.0450 290° West 188 216 16,000  Level Minneapolis Center
Sun 11:12:02 AM 44.4089 -88.1267 289° West 190 219 16,000  Level Minneapolis Center
Sun 11:13:04 AM 44.4258 -88.1936 290° West 186 214 16,000  Level Minneapolis Center
Sun 11:14:06 AM 44.4419 -88.2628 288° West 187 215 16,000  Level Minneapolis Center
Sun 11:15:08 AM 44.4589 -88.3322 289° West 187 215 16,000  Level Minneapolis Center
Sun 11:16:10 AM 44.4758 -88.4017 289° West 190 219 16,000  Level Minneapolis Center
Sun 11:17:12 AM 44.4967 -88.4825 290° West 189 217 16,000  Level Minneapolis Center
Sun 11:18:14 AM 44.5131 -88.5525 288° West 189 217 16,000  Level Minneapolis Center
Sun 11:19:16 AM 44.5297 -88.6214 289° West 188 216 16,000  Level Minneapolis Center
Sun 11:20:18 AM 44.5469 -88.6917 289° West 189 217 16,000  Level Minneapolis Center
Sun 11:21:20 AM 44.5622 -88.7631 287° West 190 219 16,000  Level Minneapolis Center
Sun 11:22:35 AM 44.5847 -88.8569 289° West 192 221 16,000  Level Minneapolis Center
Sun 11:23:37 AM 44.6019 -88.9278 289° West 191 220 16,000  Level Minneapolis Center
Sun 11:24:39 AM 44.6194 -88.9986 289° West 192 221 16,000  Level Minneapolis Center
Sun 11:25:41 AM 44.6397 -89.0797 289° West 197 227 16,000  Level Minneapolis Center
Sun 11:26:43 AM 44.6556 -89.1528 287° West 189 217 16,000  Level Minneapolis Center
Sun 11:27:45 AM 44.6722 -89.2189 290° West 186 214 16,000  Level Minneapolis Center
Sun 11:28:47 AM 44.6892 -89.2922 288° West 187 215 16,000  Level Minneapolis Center
Sun 11:29:49 AM 44.7061 -89.3650 288° West 188 216 16,000  Level Minneapolis Center
Sun 11:30:51 AM 44.7228 -89.4356 288° West 182 209 16,000  Level Minneapolis Center
Sun 11:31:53 AM 44.7400 -89.5083 288° West 187 215 16,000  Level Minneapolis Center
Sun 11:32:55 AM 44.7569 -89.5806 288° West 185 213 16,000  Level Minneapolis Center
Sun 11:33:57 AM 44.7733 -89.6525 288° West 186 214 16,000  Level Minneapolis Center
Sun 11:34:59 AM 44.7833 -89.7211 282° West 184 212 16,000  Level Minneapolis Center
Sun 11:36:01 AM 44.7919 -89.7942 279° West 183 211 16,000  Level Minneapolis Center
Sun 11:37:03 AM 44.8011 -89.8694 280° West 187 215 16,000  Level Minneapolis Center
Sun 11:38:06 AM 44.8097 -89.9442 279° West 186 214 16,000  Level Minneapolis Center
Sun 11:39:08 AM 44.8192 -90.0186 280° West 185 213 16,000  Level Minneapolis Center
Sun 11:40:10 AM 44.8278 -90.0956 279° West 189 217 16,000  Level Minneapolis Center
Sun 11:41:12 AM 44.8358 -90.1697 279° West 184 212 16,000  Level Minneapolis Center
Sun 11:42:14 AM 44.8450 -90.2442 280° West 185 213 16,000 48 Level Minneapolis Center
Sun 11:43:16 AM 44.8522 -90.3142 278° West 185 213 16,100 48 Climbing Minneapolis Center
Sun 11:44:18 AM 44.8606 -90.3892 279° West 188 216 16,100  Level Minneapolis Center
Sun 11:45:20 AM 44.8694 -90.4636 280° West 186 214 16,100 -48 Level Minneapolis Center
Sun 11:46:22 AM 44.8792 -90.5417 280° West 190 219 16,000 -48 Descending Minneapolis Center
Sun 11:47:24 AM 44.8867 -90.6158 278° West 191 220 16,000  Level Minneapolis Center
Sun 11:48:26 AM 44.8953 -90.6889 279° West 190 219 16,000  Level Minneapolis Center
Sun 11:49:28 AM 44.9036 -90.7631 279° West 192 221 16,000  Level Minneapolis Center
Sun 11:50:30 AM 44.9111 -90.8358 278° West 189 217 16,000  Level Minneapolis Center
Sun 11:51:32 AM 44.9189 -90.9108 278° West 191 220 16,000  Level Minneapolis Center
Sun 11:52:34 AM 44.9281 -90.9853 280° West 191 220 16,000  Level Minneapolis Center
Sun 11:53:36 AM 44.9364 -91.0756 277° West 193 222 16,000  Level Minneapolis Center
Sun 11:54:38 AM 44.9458 -91.1472 281° West 190 219 16,000 -145 Level Minneapolis Center
Sun 11:55:40 AM 44.9522 -91.2231 277° West 192 221 15,700 -290 Descending Minneapolis Center
Sun 11:56:42 AM 44.9608 -91.3025 279° West 198 228 15,400 -240 Descending Minneapolis Center
Sun 11:57:45 AM 44.9683 -91.3822 278° West 202 232 15,200 -384 Descending Minneapolis Center
Sun 11:58:47 AM 44.9789 -91.4789 279° West 205 236 14,600 -532 Descending Minneapolis Center
Sun 11:59:49 AM 44.9869 -91.5611 278° West 209 241 14,100 -484 Descending Minneapolis Center
Sun 12:00:51 PM 44.9958 -91.6439 279° West 213 245 13,600 -532 Descending Minneapolis Center
Sun 12:01:53 PM 45.0061 -91.7269 280° West 214 246 13,000 -585 Descending Minneapolis Center
Sun 12:02:54 PM 45.0142 -91.8086 278° West 212 244 12,400 -634 Descending Minneapolis Center
Sun 12:03:56 PM 45.0222 -91.8914 278° West 213 245 11,700 -919 Descending Minneapolis Center
Sun 12:04:58 PM 45.0311 -91.9903 277° West 213 245 10,500 -1,355 Descending Minneapolis Center
Sun 12:06:00 PM 45.0400 -92.0731 279° West 215 247 8,900 -1,452 Descending Minneapolis Center
Sun 12:07:02 PM 45.0478 -92.1578 277° West 218 251 7,500 -1,065 Descending Minneapolis Center
Sun 12:08:04 PM 45.0572 -92.2389 279° West 211 243 6,700 -629 Descending Minneapolis Center
Sun 12:09:06 PM 45.0633 -92.3136 277° West 193 222 6,200 -336 Descending Minneapolis Center
Sun 12:10:09 PM 45.0697 -92.3831 277° West 180 207 6,000 -96 Descending Minneapolis Center
Sun 12:11:11 PM 45.0772 -92.4608 278° West 167 192 6,000  Level Minneapolis Center
Sun 12:12:13 PM 45.0828 -92.5247 277° West 165 190 6,000  Level Minneapolis Center
Sun 12:13:14 PM 45.0889 -92.5881 278° West 163 188 6,000  Level Minneapolis Center
Sun 12:14:16 PM 45.0950 -92.6508 278° West 162 186 6,000 -290 Level Minneapolis Center
Sun 12:15:18 PM 45.1008 -92.7164 277° West 168 193 5,400 -624 Descending Minneapolis Center
Sun 12:16:21 PM 45.1069 -92.7847 277° West 174 200 4,700 -816 Descending Minneapolis Center
Sun 12:17:23 PM 45.1139 -92.8653 277° West 174 200 3,700 -968 Descending Minneapolis Center
Sun 12:18:25 PM 45.1208 -92.9308 279° West 171 197 2,700 -532 Descending Minneapolis Center
Sun 12:19:27 PM 45.1281 -92.9872 280° West 149 171 2,600 -242 Descending Minneapolis Center
Sun 12:20:29 PM 45.1333 -93.0431 278° West 144 166 2,200 -293 Descending Minneapolis Center
Sun 12:21:30 PM 45.1353 -93.0983 273° West 142 163 2,000 49 Descending Minneapolis Center
Sun 12:22:32 PM 45.1525 -93.1367 303° West 126 145 2,300 48 Climbing Minneapolis Center
Sun 12:23:34 PM 45.1869 -93.1550 339° North 133 153 2,100 -484 Descending Minneapolis Center
Sun 12:24:36 PM 45.1708 -93.1975 242° Southwest 129 148 1,300 -484 Descending Minneapolis Center
Sun 12:25:38 PM 45.1489 -93.2264 223° Southwest 125 144 1,100 -194 Descending Minneapolis Center
Sun 12:27:00 PM 45.1449 -93.2102 90° East  Level Estimated

Login

Don't have an account? Register now (free) for customized features, flight alerts, and more!